Fairdale, WV (25839)

1:26 AM EST on November 28, 2014 (GMT -0500)
Southeast Beckley | Change Station
CLOSE
Current Station
Personal Weather Station
Location: Beckley, WV
Elevation: 2365 ft
Nearby Weather Stations

Elev 2365 ft 37.76 °N, 81.16 °W | Updated 0 second ago

Snow
Snow
24.3 °F
Feels Like 18 °F
N
5.1
Wind Variable Wind from WSW
Gusts 5.1 mph

Today
High -- | Low -- °F
--% Chance of Precip.
Yesterday
High -- | Low -- °F
Precip. -- in
7:19 AM 5:07 PM
Waxing Crescent, 37% visible
Pressure 30.22 in
Visibility 9.0 miles
Clouds Few 2000 ft
Mostly Cloudy 3700 ft
Overcast 4500 ft
Windchill 18 °F
Dew Point 22 °F
Humidity 91%
Rainfall 0.00 in
Snow Depth Not available.
UV 0 out of 12
Pollen .10 out of 12
Air Quality Not available.
Flu Activity Not available.
SPECI KBKW 280623Z AUTO 31011G18KT 9SM -SN FEW020 BKN037 OVC045 M04/M08 A3022 RMK AO2 P0000 T10391078

More Conditions Fewer Conditions

Pressure 30.22 in
Visibility 9.0 miles
Clouds Few 2000 ft
Mostly Cloudy 3700 ft
Overcast 4500 ft
Windchill 18 °F
Dew Point 22 °F
Humidity 91%
Rainfall 0.00 in
Snow Depth Not available.
UV 0 out of 12
Pollen .10 out of 12
Air Quality Not available.
Flu Activity Not available.
SPECI KBKW 280623Z AUTO 31011G18KT 9SM -SN FEW020 BKN037 OVC045 M04/M08 A3022 RMK AO2 P0000 T10391078

More Conditions Fewer Conditions

10-Day Weather Forecast

Almanac

Astronomy

Nov. 28, 2014 Rise Set
Actual Time
Civil Twilight
Nautical Twilight
Astronomical Twilight
Moon
Length of Visible Light
Length of Day
Tomorrow will be .
, % of the Moon is Illuminated

Today's Extremes

State Highs State Lows

Community

WunderPhotos

Upload Photos

1,774,199 photos uploaded!

WunderBlogs® & News

Nearby

Air Quality

  Air Quality AQ Index Pollutant
Not available.

Snow Depth

Station Depth Elevation

Earthquake Activity

City Distance Mag. Time & Date
Minimum magnitude displayed is 2.5.

Coastal Water Temperatures

Place Temperature

Nearby Weather Stations